Time;durP1;ratioP1;P1;durP2;ratioP2;P2;SDS_P1;SDS_P2;PMS_P1;PMS_P2;Temp;Humidity;BMP_temperature;BMP_pressure;BME280_temperature;BME280_humidity;BME280_pressure;Samples;Min_cycle;Max_cycle;Signal;HPM_P1;HPM_P2
2023/03/09 00:00:47;;;;;;;53.72;21.02;;;10.80;71.30;;;;;;5053020;28;20025;-79
2023/03/09 00:03:15;;;;;;;56.75;23.65;;;10.80;71.20;;;;;;5052577;28;20032;-79
2023/03/09 00:05:52;;;;;;;36.78;17.52;;;10.90;71.20;;;;;;5052769;28;20024;-80
2023/03/09 00:08:18;;;;;;;55.83;24.05;;;10.80;72.30;;;;;;5051605;28;20029;-78
2023/03/09 00:10:43;;;;;;;58.05;25.58;;;10.80;71.60;;;;;;5051375;28;20470;-78
2023/03/09 00:13:09;;;;;;;59.00;25.25;;;10.80;71.50;;;;;;5052784;28;20044;-78
2023/03/09 00:15:35;;;;;;;57.97;24.58;;;10.80;72.20;;;;;;5051511;28;20036;-78
2023/03/09 00:18:01;;;;;;;49.53;22.35;;;10.80;71.80;;;;;;5052360;28;20017;-77
2023/03/09 00:20:27;;;;;;;35.13;16.23;;;10.70;72.60;;;;;;5051581;28;20104;-79
2023/03/09 00:22:54;;;;;;;31.73;15.18;;;10.70;72.30;;;;;;5051419;28;20125;-80
2023/03/09 00:25:21;;;;;;;29.80;13.98;;;10.60;72.20;;;;;;5051579;28;20056;-78
2023/03/09 00:27:49;;;;;;;26.88;10.73;;;10.60;73.00;;;;;;5052055;28;20021;-78
2023/03/09 00:30:17;;;;;;;27.58;13.88;;;10.60;72.50;;;;;;5051418;28;20033;-78
2023/03/09 00:32:43;;;;;;;27.05;12.93;;;10.60;72.70;;;;;;5044223;28;20421;-78
2023/03/09 00:35:09;;;;;;;30.83;14.55;;;10.60;73.40;;;;;;5051503;28;20036;-78
2023/03/09 00:37:37;;;;;;;24.85;10.85;;;10.50;73.50;;;;;;5051531;28;20112;-79
2023/03/09 00:40:06;;;;;;;24.77;12.85;;;10.50;73.40;;;;;;5049723;28;20020;-79
2023/03/09 00:42:32;;;;;;;19.98;11.20;;;10.50;73.90;;;;;;5053205;28;20112;-78
2023/03/09 00:44:59;;;;;;;26.55;13.23;;;10.50;74.00;;;;;;5051161;28;20032;-78
2023/03/09 00:47:24;;;;;;;36.63;16.30;;;10.40;74.20;;;;;;5053149;28;20387;-80
2023/03/09 00:49:50;;;;;;;40.88;18.70;;;10.40;74.10;;;;;;5052880;28;20021;-78
2023/03/09 00:52:16;;;;;;;60.45;27.17;;;10.40;74.40;;;;;;5056247;28;20017;-78
2023/03/09 00:54:41;;;;;;;58.28;24.48;;;10.40;75.00;;;;;;5056769;28;20063;-78
2023/03/09 00:57:07;;;;;;;23.13;10.95;;;10.30;75.00;;;;;;5056317;28;20017;-79
2023/03/09 00:59:33;;;;;;;31.35;13.70;;;10.30;74.70;;;;;;5056040;28;20448;-79
2023/03/09 01:01:59;;;;;;;18.65;9.60;;;10.30;75.30;;;;;;5054607;28;20509;-79
2023/03/09 01:04:25;;;;;;;52.17;22.05;;;10.30;75.20;;;;;;5055983;28;20362;-78
2023/03/09 01:06:54;;;;;;;41.00;17.52;;;10.30;75.80;;;;;;5054315;28;20116;-79
2023/03/09 01:09:19;;;;;;;26.73;10.70;;;10.30;76.10;;;;;;5055260;28;20017;-78
2023/03/09 01:11:45;;;;;;;24.95;10.77;;;10.30;76.20;;;;;;5055483;28;20036;-78
2023/03/09 01:14:11;;;;;;;30.30;14.38;;;10.30;76.20;;;;;;5053746;28;20021;-79
2023/03/09 01:16:36;;;;;;;32.70;15.02;;;10.30;76.50;;;;;;5054396;28;20439;-77
2023/03/09 01:19:02;;;;;;;26.95;13.18;;;10.20;76.80;;;;;;5052039;28;20029;-78
2023/03/09 01:21:28;;;;;;;35.42;15.93;;;10.20;77.60;;;;;;5049652;28;20406;-78
2023/03/09 01:23:54;;;;;;;50.13;19.08;;;10.20;76.70;;;;;;5055334;28;20469;-79
2023/03/09 01:26:20;;;;;;;32.20;15.38;;;10.20;76.60;;;;;;5055555;28;20040;-79
2023/03/09 01:28:47;;;;;;;70.00;27.80;;;10.30;76.50;;;;;;5055255;28;20447;-79
2023/03/09 01:31:14;;;;;;;104.15;43.03;;;10.30;76.40;;;;;;5053816;28;20040;-78
2023/03/09 01:33:40;;;;;;;46.55;22.05;;;10.30;76.70;;;;;;5054253;28;20033;-79
2023/03/09 01:36:10;;;;;;;79.10;37.28;;;10.30;77.00;;;;;;5055070;28;20047;-77
2023/03/09 01:38:35;;;;;;;27.08;12.98;;;10.30;77.70;;;;;;5055641;28;20024;-78
2023/03/09 01:41:01;;;;;;;36.47;17.52;;;10.20;77.40;;;;;;5055210;28;20047;-79
2023/03/09 01:43:34;;;;;;;56.97;26.23;;;10.30;77.70;;;;;;5055481;28;20074;-78
2023/03/09 01:46:21;;;;;;;23.70;10.65;;;10.30;77.60;;;;;;5053831;28;20082;-79
2023/03/09 01:48:58;;;;;;;38.78;18.17;;;10.30;77.30;;;;;;5055108;28;20108;-77
2023/03/09 01:51:29;;;;;;;46.00;21.00;;;10.40;77.60;;;;;;5055241;28;20039;-79
2023/03/09 01:53:57;;;;;;;56.85;27.17;;;10.40;77.80;;;;;;5055487;28;20029;-78
2023/03/09 01:56:25;;;;;;;30.88;14.48;;;10.30;78.50;;;;;;5053512;28;20024;-79
2023/03/09 01:58:53;;;;;;;61.45;23.83;;;10.30;79.00;;;;;;5054737;28;20162;-79
2023/03/09 02:01:19;;;;;;;26.40;12.13;;;10.30;79.00;;;;;;5053039;28;20021;-77
2023/03/09 02:03:49;;;;;;;16.20;8.43;;;10.30;79.80;;;;;;5054199;28;20479;-77
2023/03/09 02:06:18;;;;;;;15.82;6.80;;;10.30;79.70;;;;;;5053475;28;20482;-79
2023/03/09 02:09:21;;;;;;;15.38;7.93;;;10.30;80.50;;;;;;5054399;28;20017;-77
2023/03/09 02:11:47;;;;;;;39.95;17.20;;;10.30;80.40;;;;;;5053093;28;20352;-79
2023/03/09 02:14:14;;;;;;;36.00;17.15;;;10.30;80.50;;;;;;5053356;28;20108;-78
2023/03/09 02:16:39;;;;;;;32.65;15.35;;;10.30;80.90;;;;;;5054280;28;20027;-78
2023/03/09 02:19:13;;;;;;;15.40;8.32;;;10.30;81.30;;;;;;5054551;28;20099;-79
2023/03/09 02:21:48;;;;;;;20.50;8.10;;;10.30;81.20;;;;;;5053347;28;20027;-78
2023/03/09 02:24:48;;;;;;;14.95;7.40;;;10.30;80.30;;;;;;5054289;28;20025;-77
2023/03/09 02:27:14;;;;;;;21.17;9.10;;;10.30;80.20;;;;;;5051537;28;20061;-77
2023/03/09 02:29:40;;;;;;;25.00;10.45;;;10.30;80.20;;;;;;5054934;28;20463;-79
2023/03/09 02:32:05;;;;;;;17.42;7.82;;;10.30;81.00;;;;;;5053280;28;20031;-80
2023/03/09 02:34:31;;;;;;;15.10;8.05;;;10.30;82.10;;;;;;5053542;28;20090;-78
2023/03/09 02:36:57;;;;;;;13.68;7.80;;;10.30;82.20;;;;;;5053153;28;20512;-78
2023/03/09 02:39:49;;;;;;;15.57;7.43;;;10.20;82.90;;;;;;5053365;28;20013;-78
2023/03/09 02:42:16;;;;;;;24.25;9.40;;;10.20;83.40;;;;;;5054754;28;20021;-78
2023/03/09 02:44:42;;;;;;;15.60;7.97;;;10.20;83.70;;;;;;5052958;28;20035;-77
2023/03/09 02:47:13;;;;;;;10.68;6.45;;;10.30;84.50;;;;;;5054823;28;20032;-78
2023/03/09 02:49:39;;;;;;;9.63;5.35;;;10.30;84.90;;;;;;5053257;28;20025;-78
2023/03/09 02:52:04;;;;;;;10.35;5.03;;;10.30;85.50;;;;;;5053878;28;20075;-78
2023/03/09 02:54:30;;;;;;;13.73;7.30;;;10.30;86.20;;;;;;5054419;28;20078;-78
2023/03/09 02:56:56;;;;;;;12.32;6.65;;;10.30;86.50;;;;;;5054327;28;20032;-77
2023/03/09 02:59:21;;;;;;;14.82;8.07;;;10.30;87.60;;;;;;5052154;28;20413;-78
2023/03/09 03:01:48;;;;;;;15.70;6.43;;;10.30;88.00;;;;;;5052285;28;20021;-78
2023/03/09 03:04:14;;;;;;;9.80;5.18;;;10.30;88.60;;;;;;5053370;28;20104;-78
2023/03/09 03:06:40;;;;;;;8.80;4.95;;;10.30;89.10;;;;;;5053281;28;20117;-79
2023/03/09 03:09:05;;;;;;;9.07;5.07;;;10.30;89.40;;;;;;5053283;28;20104;-77
2023/03/09 03:11:31;;;;;;;15.35;8.60;;;10.40;89.20;;;;;;5053246;28;21450;-79
2023/03/09 03:13:57;;;;;;;14.80;8.25;;;10.40;89.80;;;;;;5051343;28;20029;-77
2023/03/09 03:16:23;;;;;;;20.73;11.05;;;10.40;89.30;;;;;;5052551;28;20028;-78
2023/03/09 03:18:48;;;;;;;13.88;8.55;;;10.50;89.70;;;;;;5053399;28;20526;-78
2023/03/09 03:21:14;;;;;;;19.30;8.93;;;10.40;89.70;;;;;;5052621;28;20024;-79
2023/03/09 03:23:40;;;;;;;32.63;15.45;;;10.40;89.30;;;;;;5053358;28;20027;-78
2023/03/09 03:26:07;;;;;;;24.30;13.13;;;10.40;89.80;;;;;;5052095;28;20040;-79
2023/03/09 03:28:33;;;;;;;16.15;8.18;;;10.40;90.10;;;;;;5052689;28;20029;-78
2023/03/09 03:30:59;;;;;;;12.50;6.40;;;10.50;90.30;;;;;;5052669;28;20031;-78
2023/03/09 03:33:25;;;;;;;9.82;5.85;;;10.50;90.20;;;;;;5053575;28;20028;-79
2023/03/09 03:35:51;;;;;;;16.70;8.13;;;10.50;90.20;;;;;;5053629;28;20036;-77
2023/03/09 03:38:16;;;;;;;13.38;6.45;;;10.60;90.20;;;;;;5053788;28;20025;-79
2023/03/09 03:40:42;;;;;;;11.77;6.07;;;10.60;90.50;;;;;;5053859;28;20021;-79
2023/03/09 03:43:08;;;;;;;17.10;8.38;;;10.60;90.20;;;;;;5052490;28;20469;-78
2023/03/09 03:45:34;;;;;;;9.32;5.13;;;10.60;90.30;;;;;;5052448;28;20089;-79
2023/03/09 03:47:59;;;;;;;16.17;8.45;;;10.70;90.30;;;;;;5053473;28;20362;-78
2023/03/09 03:50:25;;;;;;;16.92;8.20;;;10.60;90.50;;;;;;5052402;28;20021;-78
2023/03/09 03:52:51;;;;;;;20.35;8.25;;;10.70;90.60;;;;;;5053029;28;20024;-78
2023/03/09 03:55:17;;;;;;;14.88;6.97;;;10.70;90.80;;;;;;5052300;28;20064;-77
2023/03/09 03:57:42;;;;;;;12.90;6.90;;;10.70;90.90;;;;;;5053214;28;20029;-78
2023/03/09 04:00:11;;;;;;;10.27;5.60;;;10.70;91.20;;;;;;5052898;28;20032;-77
2023/03/09 04:02:38;;;;;;;16.45;7.15;;;10.70;91.60;;;;;;5052802;28;20071;-77
2023/03/09 04:05:05;;;;;;;19.52;8.73;;;10.70;91.70;;;;;;5052754;28;20016;-79
2023/03/09 04:07:31;;;;;;;17.63;7.22;;;10.70;92.10;;;;;;5052504;28;20025;-78
2023/03/09 04:09:56;;;;;;;17.77;7.07;;;10.70;92.40;;;;;;5051365;28;20029;-76
2023/03/09 04:12:22;;;;;;;15.95;5.60;;;10.70;92.50;;;;;;5052665;28;20076;-77
2023/03/09 04:14:48;;;;;;;9.05;5.78;;;10.70;92.90;;;;;;5051329;28;20086;-78
2023/03/09 04:17:14;;;;;;;9.40;5.53;;;10.80;93.00;;;;;;5052847;28;20071;-78
2023/03/09 04:19:40;;;;;;;18.65;6.15;;;10.80;93.40;;;;;;5046913;28;20029;-77
2023/03/09 04:22:07;;;;;;;17.77;8.57;;;10.80;93.50;;;;;;5052569;28;20075;-79
2023/03/09 04:24:32;;;;;;;9.05;5.13;;;10.80;93.80;;;;;;5054670;28;20028;-77
2023/03/09 04:26:58;;;;;;;18.13;7.63;;;10.70;94.40;;;;;;5056717;28;20074;-77
2023/03/09 04:29:25;;;;;;;29.30;13.63;;;10.70;94.90;;;;;;5055973;28;20017;-78
2023/03/09 04:31:50;;;;;;;26.90;13.70;;;10.70;95.50;;;;;;5056424;28;20475;-79
2023/03/09 04:34:16;;;;;;;11.55;6.78;;;10.70;95.90;;;;;;5055328;28;20021;-79
2023/03/09 04:36:42;;;;;;;15.30;7.72;;;10.70;96.40;;;;;;5055951;28;20017;-77
2023/03/09 04:39:09;;;;;;;26.98;12.32;;;10.70;96.80;;;;;;5055383;28;20012;-77
2023/03/09 04:41:35;;;;;;;14.70;7.22;;;10.70;97.40;;;;;;5055951;28;20017;-79
2023/03/09 04:44:01;;;;;;;13.73;5.60;;;10.70;97.90;;;;;;5055639;28;20351;-79
2023/03/09 04:46:27;;;;;;;7.00;4.43;;;10.70;98.10;;;;;;5055902;28;20146;-78
2023/03/09 04:48:53;;;;;;;12.55;5.93;;;10.80;98.60;;;;;;5055107;28;20467;-78
2023/03/09 04:51:19;;;;;;;11.00;6.05;;;10.80;99.30;;;;;;5055832;28;20032;-77
2023/03/09 04:53:44;;;;;;;9.95;5.97;;;10.80;99.70;;;;;;5055620;28;20021;-79
2023/03/09 04:56:10;;;;;;;10.50;5.70;;;10.70;99.90;;;;;;5056499;28;20029;-83
2023/03/09 04:58:36;;;;;;;15.73;7.13;;;10.80;99.90;;;;;;5056012;28;20017;-79
2023/03/09 05:01:02;;;;;;;11.40;6.43;;;10.80;99.90;;;;;;5055807;28;20017;-78
2023/03/09 05:03:28;;;;;;;14.02;6.63;;;10.80;99.90;;;;;;5055681;28;20025;-79
2023/03/09 05:05:53;;;;;;;13.10;5.72;;;10.90;99.90;;;;;;5054457;28;20102;-79
2023/03/09 05:08:19;;;;;;;12.95;6.50;;;10.90;99.90;;;;;;5055909;28;20448;-80
2023/03/09 05:10:45;;;;;;;14.30;7.10;;;10.90;99.90;;;;;;5055361;28;20055;-80
2023/03/09 05:13:11;;;;;;;18.63;9.15;;;11.00;99.90;;;;;;5054203;28;20083;-79
2023/03/09 05:15:39;;;;;;;31.17;16.77;;;11.00;99.90;;;;;;5055474;28;20047;-80
2023/03/09 05:18:05;;;;;;;31.38;15.40;;;11.00;99.90;;;;;;5055073;28;20025;-80
2023/03/09 05:20:32;;;;;;;28.15;13.05;;;10.90;99.90;;;;;;5055434;28;20609;-78
2023/03/09 05:22:59;;;;;;;45.13;20.38;;;10.90;99.90;;;;;;5055455;28;20070;-78
2023/03/09 05:25:25;;;;;;;29.88;14.13;;;10.90;99.90;;;;;;5055264;28;20032;-79
2023/03/09 05:27:51;;;;;;;20.15;11.07;;;10.90;99.90;;;;;;5054770;28;20025;-79
2023/03/09 05:30:19;;;;;;;21.80;10.32;;;10.90;99.90;;;;;;5056050;28;20367;-79
2023/03/09 05:32:45;;;;;;;14.07;8.40;;;10.90;99.90;;;;;;5056016;28;20021;-79
2023/03/09 05:35:11;;;;;;;20.55;11.90;;;10.90;99.90;;;;;;5053524;28;20029;-78
2023/03/09 05:37:37;;;;;;;29.25;13.60;;;10.80;99.90;;;;;;5053511;28;20023;-79
2023/03/09 05:40:07;;;;;;;54.15;24.73;;;10.80;99.90;;;;;;5053788;28;20021;-79
2023/03/09 05:42:33;;;;;;;66.10;30.25;;;10.80;99.90;;;;;;5054275;28;20025;-78
2023/03/09 05:45:00;;;;;;;63.55;26.45;;;10.90;99.90;;;;;;5055984;28;20028;-79
2023/03/09 05:47:25;;;;;;;290.48;107.22;;;10.90;99.90;;;;;;5054132;28;20033;-79
2023/03/09 05:49:51;;;;;;;235.68;99.68;;;10.90;99.90;;;;;;5055683;28;20356;-80
2023/03/09 05:52:17;;;;;;;149.63;79.75;;;10.90;99.90;;;;;;5055290;28;20416;-79
2023/03/09 05:54:43;;;;;;;85.20;42.40;;;11.00;99.90;;;;;;5053957;28;20036;-80
2023/03/09 05:57:12;;;;;;;50.20;27.67;;;11.10;99.90;;;;;;5055228;28;20021;-80
2023/03/09 05:59:37;;;;;;;90.05;34.67;;;11.20;99.90;;;;;;5055289;28;20021;-78
2023/03/09 06:02:03;;;;;;;45.63;24.25;;;11.30;99.90;;;;;;5053839;28;20017;-79
2023/03/09 06:04:29;;;;;;;48.35;23.08;;;11.40;99.90;;;;;;5055185;28;20025;-80
2023/03/09 06:06:55;;;;;;;26.42;13.05;;;11.50;99.90;;;;;;5053809;28;20036;-82
2023/03/09 06:09:20;;;;;;;49.75;27.33;;;11.60;99.90;;;;;;5054011;28;20021;-81
2023/03/09 06:11:46;;;;;;;53.03;27.08;;;11.70;99.90;;;;;;5053808;28;20031;-79
2023/03/09 06:14:12;;;;;;;28.45;16.17;;;11.70;99.90;;;;;;5054672;28;20450;-81
2023/03/09 06:16:38;;;;;;;15.80;7.45;;;11.80;99.90;;;;;;5054805;28;20482;-82
2023/03/09 06:19:04;;;;;;;15.43;9.88;;;11.80;99.90;;;;;;5054028;28;20102;-84
2023/03/09 06:21:29;;;;;;;21.25;11.85;;;11.80;99.90;;;;;;5055042;28;20048;-86
2023/03/09 06:23:56;;;;;;;18.13;10.32;;;11.90;99.90;;;;;;5054720;28;20017;-84
2023/03/09 06:26:23;;;;;;;26.17;14.70;;;11.90;99.90;;;;;;5053640;28;20082;-84
2023/03/09 06:28:49;;;;;;;17.75;11.57;;;12.00;99.90;;;;;;5053342;28;20490;-84
2023/03/09 06:31:16;;;;;;;22.52;11.90;;;12.00;99.90;;;;;;5054865;28;20124;-81
2023/03/09 06:33:44;;;;;;;21.27;8.90;;;12.10;99.90;;;;;;5054826;28;20021;-83
2023/03/09 06:36:11;;;;;;;17.27;7.93;;;12.10;99.90;;;;;;5053156;28;20477;-83
2023/03/09 06:38:38;;;;;;;12.25;9.25;;;12.10;99.90;;;;;;5054761;28;20017;-82
2023/03/09 06:41:03;;;;;;;14.43;7.00;;;12.10;99.90;;;;;;5053388;28;20017;-78
2023/03/09 06:43:29;;;;;;;11.73;6.82;;;12.20;99.90;;;;;;5053077;28;20025;-81
2023/03/09 06:45:55;;;;;;;13.68;6.43;;;12.20;99.90;;;;;;5053259;28;20025;-80
2023/03/09 06:48:21;;;;;;;9.10;5.93;;;12.30;99.90;;;;;;5054530;28;20033;-77
2023/03/09 06:50:48;;;;;;;18.90;7.18;;;12.40;99.90;;;;;;5053938;28;20017;-78
2023/03/09 06:53:14;;;;;;;16.85;6.72;;;12.40;99.90;;;;;;5054234;28;20017;-78
2023/03/09 06:55:40;;;;;;;11.95;6.07;;;12.60;99.90;;;;;;5054470;28;20025;-79
2023/03/09 06:58:06;;;;;;;16.88;7.30;;;12.70;99.90;;;;;;5054422;28;20348;-78
2023/03/09 07:00:37;;;;;;;17.67;7.00;;;12.80;99.90;;;;;;5053087;28;20032;-78
2023/03/09 07:03:03;;;;;;;12.02;6.72;;;12.90;99.90;;;;;;5054086;28;20443;-79
2023/03/09 07:05:29;;;;;;;16.10;6.90;;;12.90;99.90;;;;;;5054272;28;20040;-77
2023/03/09 07:07:55;;;;;;;12.68;6.65;;;13.00;99.90;;;;;;5054075;28;20025;-78
2023/03/09 07:10:21;;;;;;;12.85;6.55;;;13.00;99.90;;;;;;5053847;28;20024;-79
2023/03/09 07:12:48;;;;;;;11.57;6.32;;;13.60;99.00;;;;;;5052422;28;20425;-75
2023/03/09 07:15:14;;;;;;;19.02;8.13;;;13.90;97.70;;;;;;5054424;28;20087;-77
2023/03/09 07:17:42;;;;;;;19.63;7.95;;;14.20;96.30;;;;;;5053431;28;20037;-77
2023/03/09 07:20:09;;;;;;;16.80;7.90;;;14.40;96.00;;;;;;5053778;28;20017;-78
2023/03/09 07:22:35;;;;;;;11.38;6.40;;;14.70;94.70;;;;;;5053778;28;20048;-77
2023/03/09 07:25:01;;;;;;;9.18;5.03;;;14.70;94.30;;;;;;5053272;28;20431;-77
2023/03/09 07:27:26;;;;;;;8.40;5.10;;;14.80;94.10;;;;;;5052651;28;20451;-79
2023/03/09 07:29:52;;;;;;;11.63;6.47;;;15.00;93.80;;;;;;5052622;28;20367;-78
2023/03/09 07:32:18;;;;;;;11.07;6.53;;;15.30;92.70;;;;;;5052336;28;20055;-78
2023/03/09 07:34:44;;;;;;;11.48;5.75;;;15.60;91.00;;;;;;5052644;28;20032;-78
2023/03/09 07:37:10;;;;;;;13.30;6.28;;;16.00;91.00;;;;;;5052552;28;20135;-77
2023/03/09 07:39:36;;;;;;;9.60;5.88;;;16.20;90.30;;;;;;5053467;28;20027;-78
2023/03/09 07:42:01;;;;;;;12.20;5.95;;;16.40;87.60;;;;;;5053777;28;20024;-78
2023/03/09 07:44:28;;;;;;;11.13;5.75;;;16.60;86.50;;;;;;5052480;28;20021;-78
2023/03/09 07:46:54;;;;;;;12.93;5.85;;;16.90;85.30;;;;;;5053192;28;20022;-78
2023/03/09 07:49:20;;;;;;;12.52;6.05;;;17.20;83.20;;;;;;5053989;28;20025;-79
2023/03/09 07:51:45;;;;;;;11.70;5.50;;;17.50;80.90;;;;;;5052098;28;20017;-78
2023/03/09 07:54:11;;;;;;;11.13;5.43;;;17.80;80.20;;;;;;5052385;28;20021;-79
2023/03/09 07:56:37;;;;;;;12.63;5.25;;;17.90;78.40;;;;;;5053394;28;20028;-77
2023/03/09 07:59:03;;;;;;;9.38;4.55;;;18.10;74.50;;;;;;5054245;28;20060;-80
2023/03/09 08:01:30;;;;;;;4.38;3.55;;;18.30;72.10;;;;;;5056809;28;20429;-81
2023/03/09 08:03:55;;;;;;;7.85;4.18;;;18.30;67.10;;;;;;5056389;28;20052;-80
2023/03/09 08:06:21;;;;;;;8.70;5.10;;;18.40;66.70;;;;;;5057214;28;20055;-80
2023/03/09 08:08:47;;;;;;;7.40;4.57;;;18.50;67.80;;;;;;5057534;28;20064;-81
2023/03/09 08:11:13;;;;;;;5.80;3.78;;;18.70;68.30;;;;;;5057598;28;20031;-81
2023/03/09 08:13:39;;;;;;;8.18;5.20;;;18.50;64.70;;;;;;5056707;28;20053;-79
2023/03/09 08:16:08;;;;;;;13.32;6.38;;;18.50;64.80;;;;;;5057478;28;20070;-83
2023/03/09 08:18:34;;;;;;;45.35;24.15;;;18.70;63.50;;;;;;5056132;28;20056;-83
2023/03/09 08:21:09;;;;;;;23.42;12.48;;;19.10;64.00;;;;;;5057024;28;20032;-82
2023/03/09 08:23:38;;;;;;;12.80;7.50;;;19.30;61.70;;;;;;5056074;28;20025;-82
2023/03/09 08:26:07;;;;;;;10.85;5.65;;;19.50;60.80;;;;;;5055945;28;20033;-82
2023/03/09 08:28:33;;;;;;;8.73;4.93;;;19.50;59.70;;;;;;5055338;28;20112;-80
2023/03/09 08:30:59;;;;;;;12.73;7.25;;;19.50;58.60;;;;;;5056687;28;20427;-80
2023/03/09 08:33:25;;;;;;;8.32;6.38;;;19.90;59.30;;;;;;5057263;28;20025;-79
2023/03/09 08:35:51;;;;;;;9.98;8.50;;;20.20;58.20;;;;;;5056994;28;20036;-79
2023/03/09 08:38:17;;;;;;;7.85;4.22;;;20.00;57.70;;;;;;5056163;28;20347;-80
2023/03/09 08:40:43;;;;;;;8.15;4.82;;;20.10;57.50;;;;;;5056050;28;20021;-80
2023/03/09 08:43:09;;;;;;;11.48;5.25;;;20.10;57.20;;;;;;5055526;28;20027;-80
2023/03/09 08:45:37;;;;;;;33.90;16.58;;;20.10;58.10;;;;;;5055462;28;20032;-79
2023/03/09 08:48:03;;;;;;;12.93;7.00;;;20.10;57.10;;;;;;5056136;28;20098;-79
2023/03/09 08:50:29;;;;;;;10.75;4.53;;;20.00;57.60;;;;;;5055933;28;20021;-80
2023/03/09 08:52:55;;;;;;;10.90;5.97;;;20.10;57.70;;;;;;5056544;28;20088;-79
2023/03/09 08:55:21;;;;;;;11.23;6.13;;;20.10;57.60;;;;;;5055701;28;20078;-79
2023/03/09 08:57:47;;;;;;;7.53;4.10;;;19.90;56.20;;;;;;5056008;28;20033;-79
2023/03/09 09:00:14;;;;;;;11.52;5.55;;;19.80;56.40;;;;;;5056629;28;20017;-80
2023/03/09 09:02:40;;;;;;;8.60;5.05;;;19.60;57.70;;;;;;5054777;28;20112;-79
2023/03/09 09:05:07;;;;;;;8.95;4.25;;;19.50;57.50;;;;;;5055114;28;20119;-80
2023/03/09 09:07:34;;;;;;;12.43;6.35;;;19.40;58.40;;;;;;5056287;28;20025;-80
2023/03/09 09:10:00;;;;;;;8.90;6.10;;;19.40;58.70;;;;;;5054109;28;20028;-79
2023/03/09 09:12:27;;;;;;;10.77;6.18;;;19.50;59.00;;;;;;5055832;28;20045;-79
2023/03/09 09:14:54;;;;;;;35.80;15.75;;;19.50;59.70;;;;;;5055825;28;20359;-79
2023/03/09 09:17:20;;;;;;;56.10;23.75;;;19.50;58.10;;;;;;5056137;28;20386;-78
2023/03/09 09:19:46;;;;;;;49.80;23.70;;;19.50;58.80;;;;;;5056039;28;20024;-79
2023/03/09 09:22:12;;;;;;;40.80;17.52;;;19.40;57.10;;;;;;5054731;28;20032;-77
2023/03/09 09:24:38;;;;;;;55.75;24.90;;;19.30;58.40;;;;;;5054426;28;20362;-78
2023/03/09 09:27:05;;;;;;;66.25;30.38;;;19.20;59.60;;;;;;5055017;28;20021;-79
2023/03/09 09:29:32;;;;;;;16.60;8.10;;;19.10;59.80;;;;;;5054527;28;20031;-78
2023/03/09 09:31:58;;;;;;;31.05;14.25;;;19.00;58.60;;;;;;5055482;28;20033;-79
2023/03/09 09:34:24;;;;;;;44.67;19.17;;;19.00;59.50;;;;;;5054804;28;20083;-78
2023/03/09 09:36:50;;;;;;;30.70;16.23;;;18.90;59.60;;;;;;5055893;28;20029;-78
2023/03/09 09:39:17;;;;;;;11.65;6.95;;;18.80;59.60;;;;;;5054636;28;20021;-79
2023/03/09 09:41:45;;;;;;;14.93;6.75;;;18.70;60.00;;;;;;5056200;28;20458;-77
2023/03/09 09:44:17;;;;;;;13.00;6.88;;;18.60;59.50;;;;;;5055214;28;20104;-78
2023/03/09 09:46:45;;;;;;;8.55;5.20;;;18.60;59.50;;;;;;5056076;28;20463;-79
2023/03/09 09:49:22;;;;;;;11.75;6.68;;;18.50;59.20;;;;;;5054471;28;20028;-79
2023/03/09 09:52:06;;;;;;;12.02;5.90;;;18.50;59.20;;;;;;5054155;28;20100;-78
2023/03/09 09:55:04;;;;;;;15.07;6.80;;;18.40;60.30;;;;;;5055713;28;20047;-78
2023/03/09 09:57:40;;;;;;;18.38;7.47;;;18.40;60.30;;;;;;5053839;28;20528;-78
2023/03/09 10:00:21;;;;;;;24.70;11.32;;;18.30;59.60;;;;;;5054260;28;20070;-78
2023/03/09 10:03:08;;;;;;;17.30;8.45;;;18.30;61.60;;;;;;5054243;28;20025;-78
2023/03/09 10:06:12;;;;;;;31.20;13.32;;;18.30;62.20;;;;;;5054792;28;20108;-78
2023/03/09 10:08:44;;;;;;;37.45;14.65;;;18.30;61.80;;;;;;4996712;28;20045;-79
2023/03/09 10:11:32;;;;;;;25.20;9.20;;;18.30;62.20;;;;;;4996737;28;20041;-79
2023/03/09 10:14:16;;;;;;;42.03;17.27;;;18.40;62.50;;;;;;5003562;28;20121;-79
2023/03/09 10:17:06;;;;;;;55.00;22.42;;;18.30;63.60;;;;;;4996714;28;20022;-79
2023/03/09 10:19:38;;;;;;;18.02;7.68;;;18.20;65.30;;;;;;4916445;29;20043;-78
2023/03/09 10:22:12;;;;;;;13.90;7.47;;;18.20;65.20;;;;;;4916654;29;20423;-77
2023/03/09 10:24:50;;;;;;;12.82;4.35;;;18.20;66.10;;;;;;4916549;29;20052;-78
2023/03/09 10:27:35;;;;;;;32.95;14.75;;;18.10;66.00;;;;;;4916219;29;20450;-79
2023/03/09 10:30:10;;;;;;;20.40;8.45;;;18.10;66.70;;;;;;4916554;29;20032;-78
2023/03/09 10:33:03;;;;;;;17.33;9.32;;;18.10;65.90;;;;;;4916479;29;20569;-79
2023/03/09 10:35:50;;;;;;;12.35;7.38;;;18.10;65.20;;;;;;4916426;29;20126;-79
2023/03/09 10:38:17;;;;;;;15.85;8.68;;;18.30;64.30;;;;;;4916206;29;20036;-79
2023/03/09 10:40:50;;;;;;;27.90;13.15;;;18.40;64.40;;;;;;4915924;29;20459;-78
2023/03/09 10:43:31;;;;;;;27.85;13.13;;;18.40;63.90;;;;;;4920715;28;20038;-77
2023/03/09 10:46:22;;;;;;;14.85;6.90;;;18.50;64.00;;;;;;4973703;28;20043;-79
2023/03/09 10:48:49;;;;;;;21.40;9.70;;;18.60;62.00;;;;;;4973345;28;20030;-78
2023/03/09 10:51:38;;;;;;;19.25;9.40;;;18.60;62.90;;;;;;4972947;28;20483;-79
2023/03/09 10:54:37;;;;;;;32.67;16.70;;;18.60;61.90;;;;;;4972467;28;20019;-78
2023/03/09 10:57:21;;;;;;;66.53;38.58;;;18.60;62.00;;;;;;5023567;28;20414;-78
2023/03/09 11:00:05;;;;;;;19.98;13.65;;;18.60;61.20;;;;;;5054186;28;20017;-78
2023/03/09 11:02:35;;;;;;;26.63;13.93;;;18.60;60.20;;;;;;5053041;28;20052;-79
2023/03/09 11:05:23;;;;;;;53.92;24.83;;;18.60;61.30;;;;;;5052904;28;20029;-78
2023/03/09 11:07:53;;;;;;;23.92;8.30;;;18.50;61.80;;;;;;5046805;28;20432;-78
2023/03/09 11:10:23;;;;;;;14.50;6.15;;;18.50;60.30;;;;;;5054240;28;20363;-77
2023/03/09 11:12:50;;;;;;;18.10;8.75;;;18.60;59.80;;;;;;5054245;28;20072;-79
2023/03/09 11:15:15;;;;;;;14.30;6.95;;;18.80;58.40;;;;;;5052498;28;20024;-77
2023/03/09 11:17:44;;;;;;;31.48;14.68;;;19.00;58.20;;;;;;5054396;28;20036;-79
2023/03/09 11:20:23;;;;;;;19.75;9.95;;;19.20;58.40;;;;;;5052782;28;20028;-79
2023/03/09 11:22:58;;;;;;;10.43;4.80;;;19.40;58.10;;;;;;5053492;28;20466;-79
2023/03/09 11:26:03;;;;;;;8.10;5.05;;;19.50;57.10;;;;;;5053955;28;20035;-79
2023/03/09 11:28:57;;;;;;;9.05;4.80;;;19.50;56.50;;;;;;5053853;28;20083;-79
2023/03/09 11:31:25;;;;;;;6.82;3.40;;;19.50;55.60;;;;;;5052607;28;20029;-77
2023/03/09 11:33:55;;;;;;;6.75;4.18;;;19.50;55.10;;;;;;5053273;28;20021;-78
2023/03/09 11:36:45;;;;;;;11.10;6.05;;;19.60;56.00;;;;;;5053333;28;20418;-77
2023/03/09 11:39:33;;;;;;;13.73;6.72;;;19.50;56.50;;;;;;5053946;28;20020;-78
2023/03/09 11:42:13;;;;;;;7.45;4.82;;;19.50;53.50;;;;;;5053587;28;20020;-78
2023/03/09 11:44:41;;;;;;;7.20;4.10;;;19.50;54.00;;;;;;5051874;28;20017;-79
2023/03/09 11:47:36;;;;;;;7.03;4.63;;;19.40;55.00;;;;;;5053739;28;20048;-79
2023/03/09 11:50:13;;;;;;;15.95;7.75;;;19.50;55.60;;;;;;5053400;28;20057;-79
2023/03/09 11:52:50;;;;;;;6.68;4.35;;;19.60;56.00;;;;;;5053814;28;20016;-78
2023/03/09 11:55:20;;;;;;;8.20;5.63;;;19.70;55.30;;;;;;5052480;28;20110;-77
2023/03/09 11:57:52;;;;;;;10.60;4.78;;;19.80;55.30;;;;;;5053258;28;20028;-77
2023/03/09 12:00:21;;;;;;;9.45;3.97;;;20.00;56.10;;;;;;5053415;28;20025;-79
2023/03/09 12:02:50;;;;;;;8.32;5.40;;;20.00;55.00;;;;;;5053454;28;20029;-79
2023/03/09 12:05:16;;;;;;;8.68;5.35;;;20.00;54.80;;;;;;5052940;28;20031;-77
2023/03/09 12:08:01;;;;;;;7.15;5.28;;;20.20;54.70;;;;;;5052329;28;20017;-77
2023/03/09 12:10:36;;;;;;;11.20;5.38;;;20.30;54.60;;;;;;5053962;28;20017;-79
2023/03/09 12:13:12;;;;;;;8.82;4.20;;;20.30;54.50;;;;;;5053215;28;20037;-79
2023/03/09 12:15:46;;;;;;;7.53;4.72;;;20.40;54.00;;;;;;5053358;28;20040;-77
2023/03/09 12:18:24;;;;;;;6.30;4.18;;;20.40;54.70;;;;;;5052903;28;20470;-78
2023/03/09 12:20:59;;;;;;;5.57;4.05;;;20.50;53.30;;;;;;5052263;28;20395;-80
2023/03/09 12:23:36;;;;;;;9.52;5.47;;;20.40;51.90;;;;;;5053509;28;20456;-78
2023/03/09 12:26:24;;;;;;;23.65;12.10;;;20.20;52.60;;;;;;5052645;28;20536;-78
2023/03/09 12:29:04;;;;;;;20.73;11.40;;;20.00;54.10;;;;;;5045525;28;20116;-78
2023/03/09 12:31:37;;;;;;;26.40;13.25;;;19.80;56.90;;;;;;5052106;28;20044;-77
2023/03/09 12:34:04;;;;;;;8.65;4.63;;;19.50;60.90;;;;;;5057091;28;20036;-79
2023/03/09 12:36:35;;;;;;;11.48;5.50;;;19.10;62.50;;;;;;5065746;28;20036;-78
2023/03/09 12:39:27;;;;;;;11.97;6.17;;;19.00;62.60;;;;;;5070912;28;20024;-77
2023/03/09 12:42:22;;;;;;;8.02;4.40;;;18.90;63.60;;;;;;5051444;28;20036;-81
2023/03/09 12:44:47;;;;;;;8.30;5.25;;;18.90;62.60;;;;;;5076285;28;20394;-78
2023/03/09 12:47:19;;;;;;;15.10;7.88;;;18.90;65.20;;;;;;5059904;28;20021;-77